Time;durP1;ratioP1;P1;durP2;ratioP2;P2;SDS_P1;SDS_P2;PMS_P1;PMS_P2;Temp;Humidity;BMP_temperature;BMP_pressure;BME280_temperature;BME280_humidity;BME280_pressure;Samples;Min_cycle;Max_cycle;Signal;HPM_P1;HPM_P2
2021/07/13 00:01:24;;;;;;;6.00;5.50;;;;;;;20.67;78.97;101910.47;6340904;28;20210;-75
2021/07/13 00:04:28;;;;;;;5.97;5.40;;;;;;;20.68;78.12;101905.72;6340686;28;20258;-75
2021/07/13 00:07:32;;;;;;;5.22;4.93;;;;;;;20.72;78.21;101918.84;6341289;28;20183;-75
2021/07/13 00:10:39;;;;;;;6.05;5.65;;;;;;;20.71;77.87;101917.16;6341563;28;20183;-75
2021/07/13 00:13:44;;;;;;;7.25;5.50;;;;;;;20.59;78.14;101913.69;6341281;28;20190;-75
2021/07/13 00:16:50;;;;;;;6.18;5.60;;;;;;;20.62;78.30;101913.16;6323111;28;20206;-75
2021/07/13 00:19:54;;;;;;;6.57;5.45;;;;;;;20.64;78.26;101910.13;6340949;28;20214;-75
2021/07/13 00:23:00;;;;;;;5.57;5.18;;;;;;;20.66;78.83;101917.09;6339935;28;20577;-75
2021/07/13 00:26:04;;;;;;;5.93;5.40;;;;;;;20.68;78.63;101901.03;6340741;28;20335;-75
2021/07/13 00:29:09;;;;;;;6.20;5.68;;;;;;;20.66;79.15;101908.78;6339870;28;20245;-75
2021/07/13 00:32:14;;;;;;;6.57;6.20;;;;;;;20.60;79.88;101910.66;6340599;28;20289;-75
2021/07/13 00:35:18;;;;;;;5.88;5.40;;;;;;;20.62;79.12;101902.06;6340663;28;20220;-75
2021/07/13 00:38:22;;;;;;;6.03;5.55;;;;;;;20.50;80.83;101916.06;6339607;28;20474;-75
2021/07/13 00:41:27;;;;;;;6.72;6.07;;;;;;;20.34;81.35;101910.53;6321562;28;20218;-75
2021/07/13 00:44:31;;;;;;;6.15;5.85;;;;;;;20.41;80.68;101903.75;6340494;28;20190;-75
2021/07/13 00:47:37;;;;;;;6.88;5.65;;;;;;;20.48;80.91;101895.22;6339371;28;20370;-75
2021/07/13 00:50:44;;;;;;;6.05;5.70;;;;;;;20.51;80.64;101894.72;6340286;28;20246;-75
2021/07/13 00:53:48;;;;;;;6.43;5.82;;;;;;;20.53;80.62;101898.06;6339188;28;20225;-75
2021/07/13 00:56:53;;;;;;;6.80;6.10;;;;;;;20.48;80.77;101889.69;6339158;28;20384;-75
2021/07/13 00:59:57;;;;;;;6.47;5.95;;;;;;;20.43;81.27;101903.47;6340053;28;20221;-75
2021/07/13 01:03:05;;;;;;;6.55;6.00;;;;;;;20.42;81.99;101897.09;6339103;28;20493;-74
2021/07/13 01:06:13;;;;;;;6.30;6.00;;;;;;;20.42;81.92;101901.78;6340017;28;20187;-75
2021/07/13 01:09:28;;;;;;;6.90;6.25;;;;;;;20.23;84.50;101897.63;6338896;28;20358;-75
2021/07/13 01:12:45;;;;;;;5.90;5.57;;;;;;;20.19;85.05;101888.97;6338726;28;20503;-74
2021/07/13 01:15:54;;;;;;;6.22;5.93;;;;;;;20.21;83.99;101888.75;6340046;28;20220;-75
2021/07/13 01:19:13;;;;;;;6.40;5.55;;;;;;;20.20;84.53;101887.06;6338612;28;20485;-75
2021/07/13 01:22:23;;;;;;;7.47;6.53;;;;;;;20.14;85.31;101885.28;6339888;28;20293;-75
2021/07/13 01:25:40;;;;;;;6.60;6.20;;;;;;;20.21;84.79;101880.44;6338557;28;20374;-75
2021/07/13 01:28:50;;;;;;;6.07;5.78;;;;;;;20.21;84.63;101889.56;6339734;28;20252;-75
2021/07/13 01:31:56;;;;;;;6.53;6.07;;;;;;;20.20;84.42;101898.13;6338983;28;20235;-75
2021/07/13 01:35:06;;;;;;;7.05;6.40;;;;;;;20.26;83.87;101902.69;6339161;28;20246;-75
2021/07/13 01:38:13;;;;;;;6.97;6.45;;;;;;;20.28;83.77;101900.50;6338091;28;20215;-75
2021/07/13 01:41:21;;;;;;;6.90;6.40;;;;;;;20.24;84.38;101900.16;6339410;28;20190;-75
2021/07/13 01:44:28;;;;;;;6.72;6.28;;;;;;;20.10;85.61;101903.53;6339312;28;20214;-75
2021/07/13 01:47:34;;;;;;;6.93;6.30;;;;;;;20.06;86.29;101897.66;6339316;28;20183;-75
2021/07/13 01:50:43;;;;;;;7.50;6.95;;;;;;;20.07;86.39;101893.78;6338917;28;20232;-75
2021/07/13 01:53:47;;;;;;;7.30;6.65;;;;;;;20.11;85.99;101899.69;6339177;28;20186;-75
2021/07/13 01:56:55;;;;;;;6.45;6.15;;;;;;;20.03;86.95;101891.78;6339137;28;20189;-75
2021/07/13 02:00:02;;;;;;;7.15;6.65;;;;;;;20.04;86.69;101887.91;6338946;28;20262;-75
2021/07/13 02:03:18;;;;;;;7.00;6.40;;;;;;;20.02;86.65;101890.09;6338835;28;20207;-74
2021/07/13 02:06:24;;;;;;;7.72;6.85;;;;;;;20.09;86.21;101902.69;6320529;28;20229;-75
2021/07/13 02:09:29;;;;;;;9.68;6.63;;;;;;;19.95;87.73;101899.41;6338732;28;20245;-75
2021/07/13 02:12:34;;;;;;;6.78;6.22;;;;;;;19.93;87.73;101909.91;6338661;28;20191;-75
2021/07/13 02:15:40;;;;;;;7.00;6.50;;;;;;;20.03;87.47;101908.41;6337152;28;20465;-75
2021/07/13 02:18:44;;;;;;;6.53;6.05;;;;;;;19.92;88.34;101908.25;6338611;28;20260;-75
2021/07/13 02:21:49;;;;;;;7.22;6.57;;;;;;;19.75;90.18;101907.41;6337049;28;20246;-75
2021/07/13 02:24:54;;;;;;;6.70;6.30;;;;;;;19.66;90.76;101906.16;6337057;28;20478;-75
2021/07/13 02:28:07;;;;;;;6.68;6.40;;;;;;;19.78;90.11;101909.69;6338391;28;20190;-75
2021/07/13 02:31:18;;;;;;;6.78;6.47;;;;;;;19.89;88.88;101905.16;6337970;28;20230;-75
2021/07/13 02:34:26;;;;;;;6.97;6.47;;;;;;;20.05;87.39;101909.00;6313122;28;20265;-74
2021/07/13 02:37:32;;;;;;;7.50;6.95;;;;;;;20.04;87.52;101918.38;6311946;28;20195;-75
2021/07/13 02:40:37;;;;;;;7.88;6.88;;;;;;;20.08;87.11;101916.81;6312546;28;20205;-75
2021/07/13 02:43:43;;;;;;;6.55;6.25;;;;;;;20.07;87.90;101915.13;6311552;28;20530;-75
2021/07/13 02:46:49;;;;;;;6.82;6.35;;;;;;;20.14;87.54;101918.53;6312470;28;20183;-75
2021/07/13 02:49:54;;;;;;;7.47;6.80;;;;;;;20.11;88.02;101921.84;6311219;28;20435;-75
2021/07/13 02:53:00;;;;;;;7.18;6.65;;;;;;;20.17;87.53;101916.09;6311717;28;20226;-74
2021/07/13 02:56:07;;;;;;;7.50;6.65;;;;;;;20.18;87.45;101928.03;6312780;28;20247;-74
2021/07/13 02:59:13;;;;;;;7.90;6.82;;;;;;;20.20;87.35;101931.38;6311370;28;20235;-75
2021/07/13 03:02:21;;;;;;;6.95;6.45;;;;;;;19.95;89.99;101924.34;6312476;28;20250;-75
2021/07/13 03:05:27;;;;;;;7.45;6.95;;;;;;;19.89;90.49;101930.91;6312259;28;20184;-74
2021/07/13 03:08:32;;;;;;;7.05;6.65;;;;;;;20.00;89.89;101946.59;6294845;28;20242;-75
2021/07/13 03:11:38;;;;;;;7.63;6.25;;;;;;;19.92;90.67;101935.97;6311166;28;20183;-75
2021/07/13 03:14:44;;;;;;;6.80;6.30;;;;;;;20.16;88.91;101942.13;6311506;28;20194;-74
2021/07/13 03:17:49;;;;;;;7.45;6.88;;;;;;;20.27;88.23;101937.63;6312146;28;20187;-75
2021/07/13 03:20:56;;;;;;;7.30;6.75;;;;;;;20.17;90.17;101932.72;6312018;28;20183;-75
2021/07/13 03:24:04;;;;;;;7.63;7.00;;;;;;;19.87;91.70;101946.97;6293699;28;20250;-75
2021/07/13 03:27:10;;;;;;;7.18;6.70;;;;;;;19.96;91.53;101939.88;6312023;28;20183;-75
2021/07/13 03:30:15;;;;;;;7.50;6.88;;;;;;;19.91;92.19;101941.72;6311046;28;20199;-75
2021/07/13 03:33:22;;;;;;;7.75;7.07;;;;;;;19.86;93.08;101936.13;6328539;28;20241;-75
2021/07/13 03:36:27;;;;;;;7.20;6.65;;;;;;;19.89;92.63;101936.47;6336380;28;20183;-75
2021/07/13 03:39:32;;;;;;;7.47;6.97;;;;;;;20.16;90.77;101941.31;6336985;28;20183;-75
2021/07/13 03:42:37;;;;;;;7.85;7.25;;;;;;;20.24;91.03;101935.34;6318713;28;20509;-75
2021/07/13 03:45:41;;;;;;;7.53;7.03;;;;;;;20.24;91.06;101927.03;6337267;28;20183;-75
2021/07/13 03:48:49;;;;;;;8.05;7.45;;;;;;;20.34;91.35;101927.19;6336920;28;20260;-75
2021/07/13 03:51:53;;;;;;;8.23;7.53;;;;;;;20.50;89.64;101938.25;6337185;28;20205;-75
2021/07/13 03:54:59;;;;;;;7.40;6.95;;;;;;;20.51;90.05;101933.53;6337197;28;20187;-75
2021/07/13 03:58:04;;;;;;;6.90;6.60;;;;;;;20.49;90.88;101930.19;6337133;28;20206;-75
2021/07/13 04:01:10;;;;;;;7.45;6.90;;;;;;;20.50;90.32;101927.16;6340407;28;20187;-75
2021/07/13 04:04:16;;;;;;;7.32;6.75;;;;;;;20.58;90.00;101928.63;6323150;28;20222;-77
2021/07/13 04:07:20;;;;;;;7.35;6.85;;;;;;;20.57;89.98;101936.09;6341700;28;20214;-74
2021/07/13 04:10:34;;;;;;;7.70;7.20;;;;;;;20.47;90.78;101943.44;6341276;28;20221;-75
2021/07/13 04:13:38;;;;;;;10.25;7.22;;;;;;;20.55;90.61;101940.22;6340206;28;20474;-75
2021/07/13 04:16:43;;;;;;;7.25;6.80;;;;;;;20.62;90.57;101946.41;6341524;28;20254;-75
2021/07/13 04:19:48;;;;;;;11.18;7.43;;;;;;;20.73;89.90;101942.69;6341074;28;20263;-74
2021/07/13 04:22:52;;;;;;;8.18;7.35;;;;;;;20.73;90.05;101942.69;6339950;28;20545;-75
2021/07/13 04:25:57;;;;;;;10.10;7.53;;;;;;;20.81;89.36;101933.94;6339895;28;20250;-74
2021/07/13 04:29:01;;;;;;;7.47;7.05;;;;;;;20.86;89.61;101942.31;6339883;28;20575;-75
2021/07/13 04:32:06;;;;;;;7.60;7.10;;;;;;;20.94;88.79;101939.09;6340680;28;20234;-75
2021/07/13 04:35:12;;;;;;;8.27;7.53;;;;;;;20.94;89.91;101933.53;6322207;28;20279;-75
2021/07/13 04:38:17;;;;;;;8.05;7.28;;;;;;;20.85;90.90;101931.47;6340624;28;20246;-75
2021/07/13 04:41:21;;;;;;;7.35;6.75;;;;;;;20.89;91.00;101927.94;6339541;28;20414;-75
2021/07/13 04:44:25;;;;;;;6.82;6.50;;;;;;;20.94;90.39;101933.53;6339372;28;20593;-75
2021/07/13 04:47:29;;;;;;;8.88;7.43;;;;;;;20.98;90.28;101934.69;6321941;28;20269;-75
2021/07/13 04:50:35;;;;;;;7.60;7.10;;;;;;;21.01;89.75;101928.63;6339248;28;20396;-75
2021/07/13 04:53:39;;;;;;;7.40;6.72;;;;;;;20.97;90.56;101938.56;6339193;28;20250;-75
2021/07/13 04:56:43;;;;;;;7.13;6.60;;;;;;;21.01;90.48;101938.88;6321253;28;20324;-75
2021/07/13 04:59:47;;;;;;;7.13;6.70;;;;;;;21.03;90.29;101920.88;6339092;28;20474;-75
2021/07/13 05:02:55;;;;;;;7.63;6.68;;;;;;;21.03;90.00;101926.41;6338949;28;20554;-75
2021/07/13 05:06:01;;;;;;;6.78;6.18;;;;;;;21.15;89.63;101929.94;6338791;28;20586;-75
2021/07/13 05:09:05;;;;;;;6.18;5.88;;;;;;;21.21;88.81;101923.31;6339875;28;20215;-75
2021/07/13 05:12:11;;;;;;;6.80;6.40;;;;;;;21.40;88.58;101931.28;6338985;28;20183;-75
2021/07/13 05:15:17;;;;;;;6.63;6.28;;;;;;;21.41;88.19;101922.72;6338789;28;20474;-75
2021/07/13 05:18:21;;;;;;;6.38;5.97;;;;;;;21.35;88.54;101911.78;6339725;28;20208;-75
2021/07/13 05:21:27;;;;;;;6.93;6.32;;;;;;;21.37;87.90;101915.13;6339833;28;20190;-75
2021/07/13 05:24:31;;;;;;;6.20;5.90;;;;;;;21.47;87.98;101926.38;6339802;28;20210;-75
2021/07/13 05:27:37;;;;;;;6.53;6.13;;;;;;;21.41;88.50;101917.16;6338456;28;20182;-75
2021/07/13 05:30:44;;;;;;;7.72;7.03;;;;;;;21.43;88.60;101914.09;6338780;28;20543;-75
2021/07/13 05:33:51;;;;;;;6.18;5.78;;;;;;;21.58;87.09;101911.47;6338851;28;20260;-75
2021/07/13 05:36:57;;;;;;;6.65;6.25;;;;;;;21.60;87.26;101914.81;6320456;28;20377;-75
2021/07/13 05:40:01;;;;;;;6.75;6.28;;;;;;;21.60;87.79;101909.25;6321138;28;20230;-75
2021/07/13 05:43:05;;;;;;;6.30;5.93;;;;;;;21.54;87.86;101905.63;6339439;28;20190;-75
2021/07/13 05:46:10;;;;;;;6.50;6.20;;;;;;;21.46;88.59;101916.34;6338329;28;20214;-75
2021/07/13 05:49:14;;;;;;;6.05;5.75;;;;;;;21.63;87.70;101911.50;6337914;28;20184;-75
2021/07/13 05:52:19;;;;;;;5.88;5.57;;;;;;;21.68;87.74;101894.88;6338838;28;20193;-75
2021/07/13 05:55:24;;;;;;;5.97;5.70;;;;;;;21.66;87.86;101902.66;6338661;28;20285;-75
2021/07/13 05:58:28;;;;;;;6.07;5.65;;;;;;;21.71;87.19;101906.31;6338565;28;20190;-75
2021/07/13 06:01:33;;;;;;;6.03;5.72;;;;;;;21.68;87.06;101906.00;6338399;28;20214;-75
2021/07/13 06:04:37;;;;;;;6.35;5.90;;;;;;;21.69;86.85;101896.56;6338454;28;20210;-75
2021/07/13 06:07:48;;;;;;;6.07;5.68;;;;;;;21.85;86.96;101901.16;6338400;28;20187;-75
2021/07/13 06:10:53;;;;;;;5.70;5.30;;;;;;;21.95;86.37;101895.69;6338702;28;20251;-75
2021/07/13 06:13:57;;;;;;;5.43;5.05;;;;;;;22.11;85.75;101899.41;6338626;28;20183;-75
2021/07/13 06:17:02;;;;;;;5.28;4.90;;;;;;;22.25;84.58;101889.47;6338346;28;20187;-75
2021/07/13 06:20:07;;;;;;;5.75;5.43;;;;;;;22.30;84.32;101890.34;6337164;28;20520;-75
2021/07/13 06:23:13;;;;;;;5.03;4.82;;;;;;;22.43;83.63;101889.88;6337470;28;20190;-75
2021/07/13 06:26:17;;;;;;;4.65;4.45;;;;;;;22.38;83.55;101891.78;6337083;28;20211;-75
2021/07/13 06:29:22;;;;;;;5.40;5.00;;;;;;;22.29;82.84;101891.44;6338225;28;20228;-75
2021/07/13 06:32:26;;;;;;;4.68;4.38;;;;;;;22.29;82.42;101873.97;6337194;28;20477;-75
2021/07/13 06:35:31;;;;;;;4.53;4.32;;;;;;;22.34;82.03;101877.56;6319671;28;20269;-75
2021/07/13 06:38:36;;;;;;;4.25;4.07;;;;;;;22.43;81.53;101881.53;6319594;28;20255;-75
2021/07/13 06:41:41;;;;;;;4.63;4.43;;;;;;;22.41;80.55;101889.31;6337741;28;20190;-75
2021/07/13 06:44:45;;;;;;;4.30;4.00;;;;;;;22.48;80.94;101899.34;6336498;28;20427;-75
2021/07/13 06:47:54;;;;;;;4.38;4.28;;;;;;;22.60;81.39;101902.75;6336716;28;20437;-75
2021/07/13 06:50:58;;;;;;;4.63;4.30;;;;;;;22.52;81.14;101903.25;6337547;28;20187;-75
2021/07/13 06:54:04;;;;;;;4.25;4.05;;;;;;;22.59;80.62;101907.47;6337661;28;20220;-74
2021/07/13 06:57:08;;;;;;;4.40;4.30;;;;;;;22.67;81.56;101908.94;6337443;28;20282;-75
2021/07/13 07:00:14;;;;;;;4.70;4.40;;;;;;;22.60;80.26;101899.97;6337231;28;20183;-75
2021/07/13 07:03:18;;;;;;;4.68;4.38;;;;;;;22.62;80.68;101897.75;6337733;28;20183;-75
2021/07/13 07:06:23;;;;;;;4.10;3.90;;;;;;;22.68;79.96;101899.44;6336040;28;20464;-75
2021/07/13 07:09:28;;;;;;;4.40;4.18;;;;;;;22.77;78.90;101897.84;6336173;28;20376;-75
2021/07/13 07:12:32;;;;;;;3.92;3.72;;;;;;;22.82;78.68;101886.72;6318337;28;20256;-75
2021/07/13 07:15:37;;;;;;;4.47;4.20;;;;;;;22.94;78.79;101882.59;6336104;28;20279;-75
2021/07/13 07:18:41;;;;;;;4.60;4.40;;;;;;;22.99;78.73;101884.53;6319342;28;20199;-75
2021/07/13 07:21:45;;;;;;;4.63;4.35;;;;;;;23.13;78.19;101880.13;6337021;28;20189;-75
2021/07/13 07:24:51;;;;;;;5.47;4.43;;;;;;;23.31;77.55;101876.81;6336462;28;20196;-75
2021/07/13 07:27:56;;;;;;;4.15;3.80;;;;;;;23.59;78.65;101879.09;6336459;28;20214;-75
2021/07/13 07:31:01;;;;;;;3.60;3.50;;;;;;;23.76;75.30;101892.72;6318649;28;20561;-75
2021/07/13 07:34:05;;;;;;;3.15;3.05;;;;;;;23.91;73.69;101877.97;6338410;28;20264;-75
2021/07/13 07:37:09;;;;;;;4.97;3.05;;;;;;;24.12;70.57;101887.97;6323672;28;20210;-76
2021/07/13 07:40:18;;;;;;;2.78;2.58;;;;;;;24.31;67.86;101880.69;6341004;28;20221;-76
2021/07/13 07:43:22;;;;;;;6.35;2.80;;;;;;;24.48;66.02;101889.53;6342419;28;20229;-76
2021/07/13 07:46:27;;;;;;;3.30;2.80;;;;;;;24.56;65.56;101894.53;6341939;28;20207;-75
2021/07/13 07:49:31;;;;;;;6.13;2.50;;;;;;;24.56;63.44;101888.97;6323353;28;20277;-76
2021/07/13 07:52:35;;;;;;;15.23;3.30;;;;;;;24.67;63.43;101870.22;6342067;28;20183;-75
2021/07/13 07:55:41;;;;;;;2.65;2.60;;;;;;;24.67;64.02;101862.69;6342194;28;20222;-76
2021/07/13 07:58:45;;;;;;;2.40;2.38;;;;;;;24.67;64.16;101857.13;6341779;28;20188;-75
2021/07/13 08:01:49;;;;;;;2.55;2.50;;;;;;;24.83;64.46;101849.53;6341864;28;20257;-75
2021/07/13 08:04:53;;;;;;;2.40;2.40;;;;;;;24.82;62.64;101848.69;6341435;28;20190;-75
2021/07/13 08:07:57;;;;;;;2.53;2.42;;;;;;;25.02;64.04;101858.88;6340287;28;20418;-75
2021/07/13 08:11:03;;;;;;;2.40;2.40;;;;;;;25.03;62.85;101851.34;6340493;28;20524;-75
2021/07/13 08:14:07;;;;;;;2.60;2.50;;;;;;;25.05;63.28;101857.47;6341623;28;20190;-75
2021/07/13 08:17:11;;;;;;;2.90;2.03;;;;;;;25.14;63.19;101844.59;6341422;28;20226;-75
2021/07/13 08:20:16;;;;;;;2.53;2.42;;;;;;;25.12;62.50;101852.41;6340916;28;20190;-75
2021/07/13 08:23:20;;;;;;;2.60;2.50;;;;;;;25.14;62.80;101847.38;6341391;28;20236;-76
2021/07/13 08:26:26;;;;;;;3.92;2.50;;;;;;;25.10;62.80;101860.22;6340102;28;20265;-76
2021/07/13 08:29:30;;;;;;;2.92;2.80;;;;;;;25.14;63.10;101856.56;6339769;28;20412;-75
2021/07/13 08:32:34;;;;;;;2.78;2.58;;;;;;;25.17;62.94;101843.97;6339935;28;20572;-76
2021/07/13 08:35:39;;;;;;;4.13;2.50;;;;;;;25.07;62.60;101855.22;6339735;28;20375;-75
2021/07/13 08:38:43;;;;;;;2.60;2.50;;;;;;;25.07;63.03;101850.47;6339863;28;20410;-76
2021/07/13 08:41:49;;;;;;;2.85;2.47;;;;;;;25.09;63.23;101847.41;6340733;28;20190;-76
2021/07/13 08:44:53;;;;;;;2.65;2.60;;;;;;;25.09;62.84;101841.84;6339442;28;20408;-75
2021/07/13 08:47:57;;;;;;;4.30;2.83;;;;;;;25.11;63.32;101840.41;6339628;28;20517;-76
2021/07/13 08:51:02;;;;;;;2.78;2.70;;;;;;;24.97;62.53;101844.13;6341035;28;20220;-76
2021/07/13 08:54:10;;;;;;;2.78;2.60;;;;;;;25.00;62.31;101840.75;6340138;28;20409;-76
2021/07/13 08:57:16;;;;;;;3.13;2.50;;;;;;;24.86;61.73;101838.59;6339384;28;20470;-77
2021/07/13 09:00:21;;;;;;;2.40;2.40;;;;;;;24.97;61.89;101841.31;6339270;28;20514;-76
2021/07/13 09:03:30;;;;;;;2.50;2.40;;;;;;;25.02;62.06;101844.09;6340583;28;20187;-76
2021/07/13 09:06:53;;;;;;;4.15;2.60;;;;;;;25.07;63.01;101827.28;6339206;28;20386;-77
2021/07/13 09:10:04;;;;;;;3.83;2.67;;;;;;;25.08;61.36;101828.97;6340622;28;20183;-75
2021/07/13 09:13:11;;;;;;;2.60;2.50;;;;;;;25.03;60.95;101823.44;6339643;28;20246;-75
2021/07/13 09:16:17;;;;;;;2.72;2.28;;;;;;;25.04;61.89;101834.28;6339896;28;20257;-75
2021/07/13 09:19:22;;;;;;;2.70;2.60;;;;;;;25.05;62.24;101818.38;6338882;28;20345;-76
2021/07/13 09:22:27;;;;;;;2.60;2.45;;;;;;;25.10;61.33;101826.72;6339222;28;20382;-76
2021/07/13 09:25:34;;;;;;;2.67;2.58;;;;;;;25.16;61.92;101820.00;6340473;28;20289;-76
2021/07/13 09:28:45;;;;;;;2.40;2.40;;;;;;;25.14;62.22;101828.63;6339572;28;20246;-76
2021/07/13 09:31:50;;;;;;;3.53;2.65;;;;;;;25.16;61.59;101806.03;6339055;28;20226;-75
2021/07/13 09:34:56;;;;;;;2.50;2.50;;;;;;;25.23;61.91;101803.72;6320864;28;20199;-76
2021/07/13 09:38:04;;;;;;;3.10;3.00;;;;;;;25.26;62.17;101801.19;6339560;28;20285;-76
2021/07/13 09:41:14;;;;;;;2.50;2.40;;;;;;;25.24;60.91;101805.41;6339216;28;20246;-76
2021/07/13 09:44:23;;;;;;;2.88;2.67;;;;;;;25.32;61.42;101802.00;6339211;28;20182;-76
2021/07/13 09:47:30;;;;;;;2.53;2.50;;;;;;;25.22;60.00;101802.03;6338762;28;20207;-75
2021/07/13 09:50:40;;;;;;;2.70;2.50;;;;;;;25.26;60.89;101797.56;6338026;28;20183;-78
2021/07/13 09:53:45;;;;;;;2.60;2.50;;;;;;;25.37;60.28;101801.94;6337881;28;20183;-76
2021/07/13 09:56:49;;;;;;;2.78;2.60;;;;;;;25.40;59.67;101804.97;6337383;28;20374;-76
2021/07/13 09:59:57;;;;;;;2.70;2.60;;;;;;;25.40;59.48;101798.53;6338987;28;20228;-76
2021/07/13 10:03:02;;;;;;;2.40;2.40;;;;;;;25.48;58.46;101800.75;6338052;28;20214;-75
2021/07/13 10:06:07;;;;;;;2.53;2.42;;;;;;;25.53;59.04;101803.50;6338751;28;20183;-76
2021/07/13 10:09:12;;;;;;;2.40;2.40;;;;;;;25.48;57.75;101804.38;6319972;28;20525;-76
2021/07/13 10:12:19;;;;;;;2.60;2.50;;;;;;;25.50;57.63;101801.28;6338859;28;20221;-76
2021/07/13 10:15:25;;;;;;;2.10;2.10;;;;;;;25.58;58.90;101802.63;6337290;28;20456;-77
2021/07/13 10:18:30;;;;;;;2.60;2.50;;;;;;;25.65;58.47;101805.91;6338529;28;20261;-76
2021/07/13 10:21:35;;;;;;;2.50;2.35;;;;;;;25.72;58.48;101801.63;6337755;28;20190;-76
2021/07/13 10:24:41;;;;;;;2.58;2.47;;;;;;;25.66;57.53;101800.00;6338394;28;20292;-74
2021/07/13 10:27:50;;;;;;;2.40;2.30;;;;;;;25.74;58.35;101804.97;6338319;28;20210;-76
2021/07/13 10:30:57;;;;;;;2.40;2.40;;;;;;;25.74;57.71;101793.78;6319849;28;20213;-77
2021/07/13 10:34:01;;;;;;;2.50;2.50;;;;;;;25.86;57.92;101794.19;6338056;28;20394;-75
2021/07/13 10:37:26;;;;;;;4.20;2.80;;;;;;;25.91;58.18;101805.34;6337101;28;20193;-76
2021/07/13 10:40:36;;;;;;;2.80;2.60;;;;;;;25.91;57.81;101794.16;6338359;28;20249;-76
2021/07/13 10:43:48;;;;;;;2.40;2.40;;;;;;;25.91;57.35;101801.72;6337599;28;20252;-74
2021/07/13 10:47:27;;;;;;;2.42;2.42;;;;;;;25.88;57.09;101803.16;6337968;28;20183;-75
2021/07/13 10:50:47;;;;;;;2.80;2.60;;;;;;;26.00;57.46;101803.56;6338069;28;20228;-77
2021/07/13 10:54:06;;;;;;;2.78;2.58;;;;;;;26.15;56.76;101804.53;6319048;28;20198;-75
2021/07/13 10:57:25;;;;;;;2.60;2.40;;;;;;;26.20;56.79;101801.69;6318678;28;20199;-75
2021/07/13 11:01:03;;;;;;;2.35;2.25;;;;;;;26.27;56.89;101807.78;6337686;28;20190;-76
2021/07/13 11:04:12;;;;;;;2.78;2.55;;;;;;;26.39;56.69;101805.38;6318405;28;20206;-75
2021/07/13 11:07:39;;;;;;;2.55;2.55;;;;;;;26.25;56.28;101804.41;6318932;28;20514;-75
2021/07/13 11:10:44;;;;;;;2.47;2.47;;;;;;;26.34;57.01;101797.03;6337207;28;20183;-76
2021/07/13 11:13:49;;;;;;;3.30;3.03;;;;;;;26.23;56.05;101798.28;6337813;28;20221;-76
2021/07/13 11:16:54;;;;;;;3.13;2.92;;;;;;;26.29;57.13;101794.31;6337200;28;20228;-76
2021/07/13 11:20:06;;;;;;;2.90;2.80;;;;;;;26.40;57.31;101801.44;6335910;28;20218;-75
2021/07/13 11:23:11;;;;;;;2.55;2.30;;;;;;;26.38;56.49;101800.91;6337651;28;20183;-75
2021/07/13 11:26:17;;;;;;;2.53;2.53;;;;;;;26.44;57.03;101794.09;6336033;28;20546;-75
2021/07/13 11:29:23;;;;;;;2.65;2.55;;;;;;;26.50;56.99;101790.94;6318683;28;20296;-75
2021/07/13 11:32:27;;;;;;;3.10;2.90;;;;;;;26.53;56.79;101789.50;6336339;28;20268;-75
2021/07/13 11:35:33;;;;;;;3.05;2.95;;;;;;;26.56;57.21;101788.91;6337055;28;20228;-76
2021/07/13 11:38:37;;;;;;;3.20;2.70;;;;;;;26.47;56.99;101785.97;6337054;28;20195;-75
2021/07/13 11:41:42;;;;;;;3.40;2.90;;;;;;;26.47;58.15;101785.13;6337318;28;20251;-75
2021/07/13 11:44:48;;;;;;;3.05;2.90;;;;;;;26.41;58.76;101789.09;6336806;28;20252;-75
2021/07/13 11:48:01;;;;;;;4.35;2.90;;;;;;;26.43;60.03;101800.81;6317703;28;20264;-75
2021/07/13 11:51:09;;;;;;;3.35;3.15;;;;;;;26.39;60.75;101796.97;6337193;28;20183;-76
2021/07/13 11:54:15;;;;;;;3.20;3.05;;;;;;;26.01;60.80;101805.22;6336788;28;20209;-76
2021/07/13 11:57:19;;;;;;;4.82;3.05;;;;;;;26.02;61.42;101795.72;6335727;28;20407;-76
2021/07/13 12:00:28;;;;;;;3.38;3.20;;;;;;;26.02;62.95;101797.66;6336934;28;20193;-76
2021/07/13 12:03:32;;;;;;;4.00;3.78;;;;;;;25.95;63.24;101800.84;6337121;28;20183;-77
2021/07/13 12:06:40;;;;;;;4.30;4.10;;;;;;;26.02;62.12;101795.72;6335500;28;20527;-75
2021/07/13 12:09:45;;;;;;;3.60;3.55;;;;;;;25.96;61.42;101791.28;6336699;28;20245;-76
2021/07/13 12:12:49;;;;;;;4.05;3.85;;;;;;;26.22;61.78;101788.25;6336487;28;20246;-76
2021/07/13 12:15:53;;;;;;;4.05;3.75;;;;;;;26.23;61.15;101789.91;6336937;28;20221;-76
2021/07/13 12:18:59;;;;;;;4.25;3.90;;;;;;;26.22;62.09;101793.84;6335516;28;20186;-76
2021/07/13 12:22:07;;;;;;;4.53;4.22;;;;;;;26.30;62.27;101795.97;6341251;28;20187;-76
2021/07/13 12:25:11;;;;;;;4.22;4.03;;;;;;;26.25;61.70;101794.06;6340904;28;20221;-75
2021/07/13 12:28:17;;;;;;;5.10;4.80;;;;;;;25.95;62.69;101784.06;6342676;28;20211;-75
2021/07/13 12:31:21;;;;;;;4.40;4.30;;;;;;;26.01;63.14;101788.44;6341358;28;20226;-76
2021/07/13 12:34:28;;;;;;;4.45;4.25;;;;;;;26.06;61.93;101787.56;6340706;28;20520;-76
2021/07/13 12:37:34;;;;;;;4.10;3.80;;;;;;;26.13;61.06;101793.66;6323942;28;20198;-76
2021/07/13 12:40:38;;;;;;;3.90;3.72;;;;;;;26.01;61.16;101788.44;6342673;28;20296;-76
2021/07/13 12:43:42;;;;;;;3.97;3.88;;;;;;;26.08;61.66;101783.34;6341668;28;20182;-76
2021/07/13 12:46:46;;;;;;;3.80;3.70;;;;;;;26.23;60.49;101776.75;6342877;28;20183;-76
2021/07/13 12:50:10;;;;;;;3.63;3.50;;;;;;;26.27;61.04;101771.41;6342156;28;20211;-76
2021/07/13 12:53:26;;;;;;;3.50;3.40;;;;;;;26.32;59.52;101776.94;6343302;28;20190;-76
2021/07/13 12:56:31;;;;;;;3.85;3.75;;;;;;;26.26;59.42;101767.75;6341402;28;20184;-76
2021/07/13 13:00:00;;;;;;;4.28;3.33;;;;;;;26.21;59.93;101764.19;6321042;28;20210;-75
2021/07/13 13:03:07;;;;;;;3.50;3.33;;;;;;;26.36;60.49;101766.78;6340549;28;20183;-76
2021/07/13 13:06:11;;;;;;;3.45;3.20;;;;;;;26.35;60.80;101765.13;6340204;28;20249;-75
2021/07/13 13:09:18;;;;;;;3.35;3.10;;;;;;;26.32;60.00;101771.34;6340178;28;20218;-75
2021/07/13 13:12:22;;;;;;;4.93;3.10;;;;;;;26.41;59.53;101770.34;6339842;28;20241;-76
2021/07/13 13:15:26;;;;;;;2.90;2.80;;;;;;;26.42;58.79;101765.59;6340505;28;20246;-75
2021/07/13 13:18:31;;;;;;;3.17;2.90;;;;;;;26.44;57.44;101775.38;6339771;28;20501;-75
2021/07/13 13:21:37;;;;;;;2.90;2.80;;;;;;;26.35;56.97;101781.91;6338931;28;20246;-75
2021/07/13 13:24:42;;;;;;;2.83;2.47;;;;;;;26.40;56.92;101776.28;6339306;28;20183;-75
2021/07/13 13:27:47;;;;;;;2.55;2.40;;;;;;;26.51;56.59;101769.38;6339335;28;20189;-75
2021/07/13 13:30:51;;;;;;;3.08;2.28;;;;;;;26.33;56.01;101772.97;6338270;28;20569;-75
2021/07/13 13:33:56;;;;;;;3.03;2.70;;;;;;;26.38;56.25;101770.13;6339281;28;20226;-75
2021/07/13 13:37:06;;;;;;;2.22;2.10;;;;;;;26.43;54.48;101747.66;6339298;28;20214;-75
2021/07/13 13:40:14;;;;;;;2.50;2.40;;;;;;;26.69;55.70;101748.97;6321409;28;20202;-75
2021/07/13 13:43:18;;;;;;;2.35;2.30;;;;;;;26.80;54.83;101744.91;6339559;28;20219;-75
2021/07/13 13:46:24;;;;;;;2.65;2.45;;;;;;;27.53;52.54;101755.47;6338849;28;20183;-75
2021/07/13 13:49:28;;;;;;;2.42;2.38;;;;;;;27.45;51.61;101756.19;6337613;28;20234;-75
2021/07/13 13:52:32;;;;;;;2.08;2.08;;;;;;;27.47;52.52;101742.69;6337774;28;20428;-75
2021/07/13 13:55:39;;;;;;;2.50;2.40;;;;;;;28.51;50.48;101747.25;6339010;28;20190;-75
2021/07/13 13:58:44;;;;;;;2.15;2.10;;;;;;;29.43;48.15;101741.09;6319327;28;20271;-76
2021/07/13 14:01:48;;;;;;;2.28;2.25;;;;;;;29.82;46.70;101747.94;6337810;28;20411;-76
2021/07/13 14:04:52;;;;;;;2.38;2.38;;;;;;;29.67;46.44;101730.31;6338839;28;20182;-76
2021/07/13 14:07:56;;;;;;;2.40;2.30;;;;;;;29.23;48.58;101735.19;6337343;28;20379;-76
2021/07/13 14:11:04;;;;;;;2.45;2.38;;;;;;;29.28;47.05;101743.47;6337972;28;20210;-76
2021/07/13 14:14:09;;;;;;;2.70;2.60;;;;;;;28.75;48.92;101740.56;6320317;28;20198;-76
2021/07/13 14:17:13;;;;;;;2.33;2.33;;;;;;;28.68;49.37;101731.78;6338423;28;20261;-75
2021/07/13 14:20:18;;;;;;;2.70;2.60;;;;;;;28.43;50.47;101745.19;6319429;28;20381;-76
2021/07/13 14:23:23;;;;;;;2.60;2.50;;;;;;;28.02;50.58;101738.00;6337110;28;20253;-75
2021/07/13 14:26:29;;;;;;;2.53;2.42;;;;;;;28.00;51.22;101735.47;6337167;28;20183;-75